CheckWX is a tool to help pilots better visualize weather data.  It is not intended as a substitute for an official pre-flight weather briefing.

17:42:29 UTC

KAEX METAR
Alexandria International Airport
Alexandria, Louisiana, USA
Current

49 mins ago

KAEX 201653Z 36010G21KT 10SM -RA OVC012 07/06 A3031 RMK AO2 SLP269 P0003 T00720056
Observed
Feb-20 @ 16:53 UTC
Wind
  • 360° at 10 KTS
  • Gusting to 21 KTS
Visibility
10 SM
Flight Rules
MVFR
Conditions
Light Rain
Cloud Levels
  • Overcast at 1,200' AGL
Temperature
C / 45°F
Dewpoint
C / 43°F
Humidity
93%
Altimeter
30.31" Hg
Pressure
1026.42 hPa
Current Rain
0.03"
Previous

2 hours ago

KAEX 201600Z 34009KT 5SM RA OVC011 07/06 A3030 RMK AO2 P0001 T00720056
Observed
Feb-20 @ 16:00 UTC
Wind
  • 340° at 9 KTS
Visibility
5 SM
Flight Rules
MVFR
Conditions
Rain
Cloud Levels
  • Overcast at 1,100' AGL
Temperature
C / 45°F
Dewpoint
C / 43°F
Humidity
93%
Altimeter
30.3" Hg
Pressure
1026.12 hPa
Current Rain
0.01"
Previous

2 hours ago

KAEX 201553Z 35009G17KT 5SM RA BKN009 OVC017 07/06 A3029 RMK AO2 SLP262 P0007 T00720056
Observed
Feb-20 @ 15:53 UTC
Wind
  • 350° at 9 KTS
  • Gusting to 17 KTS
Visibility
5 SM
Flight Rules
IFR
Conditions
Rain
Cloud Levels
  • Broken at 900' AGL
  • Overcast at 1,700' AGL
Temperature
C / 45°F
Dewpoint
C / 43°F
Humidity
93%
Altimeter
30.29" Hg
Pressure
1025.72 hPa
Current Rain
0.07"